Time;durP1;ratioP1;P1;durP2;ratioP2;P2;SDS_P1;SDS_P2;PMS_P1;PMS_P2;Temp;Humidity;BMP_temperature;BMP_pressure;BME280_temperature;BME280_humidity;BME280_pressure;Samples;Min_cycle;Max_cycle;Signal;HPM_P1;HPM_P2
2023/12/27 00:00:30;;;;;;;7.4;4.2;;;;;;;;;;;;;
2023/12/27 00:02:56;;;;;;;5.8;3.5;;;;;;;;;;;;;
2023/12/27 00:05:30;;;;;;;6;3.8;;;;;;;;;;;;;
2023/12/27 00:07:58;;;;;;;5.9;3.8;;;;;;;;;;;;;
2023/12/27 00:10:27;;;;;;;5.4;3.6;;;;;;;;;;;;;
2023/12/27 00:13:02;;;;;;;8.1;5;;;;;;;;;;;;;
2023/12/27 00:15:28;;;;;;;9;5.5;;;;;;;;;;;;;
2023/12/27 00:17:53;;;;;;;10.7;5;;;;;;;;;;;;;
2023/12/27 00:20:23;;;;;;;11.8;5.3;;;;;;;;;;;;;
2023/12/27 00:22:50;;;;;;;8.9;4.3;;;;;;;;;;;;;
2023/12/27 00:25:15;;;;;;;5.7;3.7;;;;;;;;;;;;;
2023/12/27 00:27:41;;;;;;;5.3;3.5;;;;;;;;;;;;;
2023/12/27 00:30:06;;;;;;;5.9;3.6;;;;;;;;;;;;;
2023/12/27 00:32:35;;;;;;;4.9;3;;;;;;;;;;;;;
2023/12/27 00:35:07;;;;;;;3.5;2.6;;;;;;;;;;;;;
2023/12/27 00:37:39;;;;;;;4.5;2.9;;;;;;;;;;;;;
2023/12/27 00:40:04;;;;;;;3.2;2.5;;;;;;;;;;;;;
2023/12/27 00:42:32;;;;;;;4.3;2.8;;;;;;;;;;;;;
2023/12/27 00:44:57;;;;;;;3.2;2.4;;;;;;;;;;;;;
2023/12/27 00:47:24;;;;;;;3.7;2.5;;;;;;;;;;;;;
2023/12/27 00:49:49;;;;;;;3.9;2.9;;;;;;;;;;;;;
2023/12/27 00:52:14;;;;;;;5;2.8;;;;;;;;;;;;;
2023/12/27 00:54:39;;;;;;;4.7;3.3;;;;;;;;;;;;;
2023/12/27 00:57:04;;;;;;;4.6;3;;;;;;;;;;;;;
2023/12/27 00:59:29;;;;;;;4.6;3;;;;;;;;;;;;;
2023/12/27 01:01:59;;;;;;;9;5.4;;;;;;;;;;;;;
2023/12/27 01:04:25;;;;;;;13.3;8.4;;;;;;;;;;;;;
2023/12/27 01:06:50;;;;;;;7.3;5;;;;;;;;;;;;;
2023/12/27 01:09:16;;;;;;;3.7;3;;;;;;;;;;;;;
2023/12/27 01:11:46;;;;;;;4.6;3;;;;;;;;;;;;;
2023/12/27 01:14:13;;;;;;;4.1;3;;;;;;;;;;;;;
2023/12/27 01:16:38;;;;;;;4.1;2.9;;;;;;;;;;;;;
2023/12/27 01:19:06;;;;;;;3.7;2.8;;;;;;;;;;;;;
2023/12/27 01:21:31;;;;;;;4.5;2.8;;;;;;;;;;;;;
2023/12/27 01:23:56;;;;;;;3.9;2.8;;;;;;;;;;;;;
2023/12/27 01:26:22;;;;;;;4.4;2.9;;;;;;;;;;;;;
2023/12/27 01:28:47;;;;;;;4.4;2.9;;;;;;;;;;;;;
2023/12/27 01:31:12;;;;;;;5.4;2.6;;;;;;;;;;;;;
2023/12/27 01:33:39;;;;;;;4.1;2.7;;;;;;;;;;;;;
2023/12/27 01:36:05;;;;;;;8;3.7;;;;;;;;;;;;;
2023/12/27 01:38:31;;;;;;;7.1;3.8;;;;;;;;;;;;;
2023/12/27 01:40:56;;;;;;;8.2;3.9;;;;;;;;;;;;;
2023/12/27 01:43:23;;;;;;;6.5;3.1;;;;;;;;;;;;;
2023/12/27 01:45:48;;;;;;;4.1;2.7;;;;;;;;;;;;;
2023/12/27 01:48:13;;;;;;;4.7;2.8;;;;;;;;;;;;;
2023/12/27 01:50:39;;;;;;;3.6;2.5;;;;;;;;;;;;;
2023/12/27 01:53:04;;;;;;;3.7;2.6;;;;;;;;;;;;;
2023/12/27 01:55:29;;;;;;;3.3;2.4;;;;;;;;;;;;;
2023/12/27 01:57:57;;;;;;;4;2.6;;;;;;;;;;;;;
2023/12/27 02:00:22;;;;;;;3.7;2.7;;;;;;;;;;;;;
2023/12/27 02:02:47;;;;;;;3;2.4;;;;;;;;;;;;;
2023/12/27 02:05:12;;;;;;;2.9;2.3;;;;;;;;;;;;;
2023/12/27 02:07:41;;;;;;;4.4;2.5;;;;;;;;;;;;;
2023/12/27 02:10:06;;;;;;;4.4;2.4;;;;;;;;;;;;;
2023/12/27 02:12:31;;;;;;;3.4;2.5;;;;;;;;;;;;;
2023/12/27 02:14:57;;;;;;;3.2;2.2;;;;;;;;;;;;;
2023/12/27 02:17:25;;;;;;;3.1;2;;;;;;;;;;;;;
2023/12/27 02:19:53;;;;;;;3;1.9;;;;;;;;;;;;;
2023/12/27 02:22:19;;;;;;;3.7;2.4;;;;;;;;;;;;;
2023/12/27 02:24:44;;;;;;;3.1;2.1;;;;;;;;;;;;;
2023/12/27 02:27:09;;;;;;;2.3;2;;;;;;;;;;;;;
2023/12/27 02:29:36;;;;;;;3.1;1.9;;;;;;;;;;;;;
2023/12/27 02:32:01;;;;;;;2.4;2;;;;;;;;;;;;;
2023/12/27 02:34:27;;;;;;;2.5;2.1;;;;;;;;;;;;;
2023/12/27 02:36:52;;;;;;;2.3;2.1;;;;;;;;;;;;;
2023/12/27 02:39:22;;;;;;;2.6;2.2;;;;;;;;;;;;;
2023/12/27 02:41:44;;;;;;;2.8;2.2;;;;;;;;;;;;;
2023/12/27 02:44:10;;;;;;;3.8;2.6;;;;;;;;;;;;;
2023/12/27 02:46:35;;;;;;;4;2.8;;;;;;;;;;;;;
2023/12/27 02:49:04;;;;;;;4.5;2.9;;;;;;;;;;;;;
2023/12/27 02:51:28;;;;;;;4.1;2.7;;;;;;;;;;;;;
2023/12/27 02:53:54;;;;;;;4.8;2.8;;;;;;;;;;;;;
2023/12/27 02:56:19;;;;;;;4.5;3;;;;;;;;;;;;;
2023/12/27 02:58:46;;;;;;;4.6;2.7;;;;;;;;;;;;;
2023/12/27 03:01:11;;;;;;;3.9;2.8;;;;;;;;;;;;;
2023/12/27 03:03:39;;;;;;;3.5;2.5;;;;;;;;;;;;;
2023/12/27 03:06:04;;;;;;;3.2;2.2;;;;;;;;;;;;;
2023/12/27 03:08:31;;;;;;;5;2.6;;;;;;;;;;;;;
2023/12/27 03:10:56;;;;;;;5.3;2.8;;;;;;;;;;;;;
2023/12/27 03:13:22;;;;;;;4.7;2.6;;;;;;;;;;;;;
2023/12/27 03:15:47;;;;;;;3.4;2.6;;;;;;;;;;;;;
2023/12/27 03:18:14;;;;;;;4.1;2.2;;;;;;;;;;;;;
2023/12/27 03:20:39;;;;;;;4.2;2.5;;;;;;;;;;;;;
2023/12/27 03:23:04;;;;;;;4.5;2.4;;;;;;;;;;;;;
2023/12/27 03:25:29;;;;;;;6.7;2.9;;;;;;;;;;;;;
2023/12/27 03:27:56;;;;;;;4.6;2.4;;;;;;;;;;;;;
2023/12/27 03:30:20;;;;;;;4;2.1;;;;;;;;;;;;;
2023/12/27 03:32:51;;;;;;;4.5;2.4;;;;;;;;;;;;;
2023/12/27 03:35:18;;;;;;;4;2.5;;;;;;;;;;;;;
2023/12/27 03:37:45;;;;;;;3.2;2.2;;;;;;;;;;;;;
2023/12/27 03:40:14;;;;;;;3.4;2.2;;;;;;;;;;;;;
2023/12/27 03:42:43;;;;;;;4.4;2.5;;;;;;;;;;;;;
2023/12/27 03:45:08;;;;;;;3.8;2.3;;;;;;;;;;;;;
2023/12/27 03:47:33;;;;;;;3.4;2.4;;;;;;;;;;;;;
2023/12/27 03:50:01;;;;;;;2.9;2.4;;;;;;;;;;;;;
2023/12/27 03:52:24;;;;;;;4.9;2.7;;;;;;;;;;;;;
2023/12/27 03:54:49;;;;;;;4.4;2.7;;;;;;;;;;;;;
2023/12/27 03:57:17;;;;;;;3.5;2.4;;;;;;;;;;;;;
2023/12/27 03:59:42;;;;;;;4.7;3.2;;;;;;;;;;;;;
2023/12/27 04:02:42;;;;;;;5.9;3.1;;;;;;;2.12;82.15137;942.8848;;;;
2023/12/27 04:05:26;;;;;;;4.3;2.7;;;;;;;2.19;81.58301;942.9647;;;;
2023/12/27 04:08:15;;;;;;;3.9;2.4;;;;;;;2.33;81.00488;942.914;;;;
2023/12/27 04:10:42;;;;;;;3.5;2.4;;;;;;;2.4;80.62598;942.8639;;;;
2023/12/27 04:13:16;;;;;;;3.3;2.2;;;;;;;2.26;81.02637;942.8546;;;;
2023/12/27 04:15:49;;;;;;;2.5;2.1;;;;;;;2.26;80.94727;942.838;;;;
2023/12/27 04:18:19;;;;;;;3.5;2.4;;;;;;;2.11;81.32129;942.8766;;;;
2023/12/27 04:20:50;;;;;;;3.7;2.2;;;;;;;1.94;81.77148;942.7271;;;;
2023/12/27 04:23:15;;;;;;;3.2;2.1;;;;;;;2.04;81.91211;942.863;;;;
2023/12/27 04:25:46;;;;;;;3.8;2.7;;;;;;;2.04;82.0459;942.9369;;;;
2023/12/27 04:28:15;;;;;;;4.8;3;;;;;;;2.04;81.94727;943.0203;;;;
2023/12/27 04:30:40;;;;;;;4.9;3;;;;;;;1.97;82.22461;942.9582;;;;
2023/12/27 04:33:08;;;;;;;3.8;2.4;;;;;;;1.95;82.29688;942.954;;;;
2023/12/27 04:35:36;;;;;;;2.1;1.8;;;;;;;1.78;82.54395;943.035;;;;
2023/12/27 04:38:03;;;;;;;2.8;1.9;;;;;;;1.91;82.11133;943.0372;;;;
2023/12/27 04:40:34;;;;;;;2.2;1.6;;;;;;;1.8;82.3457;942.9842;;;;
2023/12/27 04:43:04;;;;;;;2.4;1.6;;;;;;;1.81;82.2168;943.0355;;;;
2023/12/27 04:45:29;;;;;;;2.7;1.7;;;;;;;1.9;81.56152;942.9494;;;;
2023/12/27 04:47:55;;;;;;;2.7;1.8;;;;;;;1.86;81.5752;942.9292;;;;
2023/12/27 04:50:25;;;;;;;3.1;1.8;;;;;;;1.65;82.05078;942.915;;;;
2023/12/27 04:52:58;;;;;;;2;1.7;;;;;;;1.76;81.92676;942.9769;;;;
2023/12/27 04:55:23;;;;;;;3.4;1.8;;;;;;;1.76;82.42871;942.9885;;;;
2023/12/27 04:57:49;;;;;;;3.9;2;;;;;;;1.87;82.30566;942.9981;;;;
2023/12/27 05:00:15;;;;;;;5.2;2.5;;;;;;;1.88;82.47559;942.9156;;;;
2023/12/27 05:02:40;;;;;;;4;2.2;;;;;;;1.91;82.58105;943.0372;;;;
2023/12/27 05:05:05;;;;;;;4.5;2.5;;;;;;;1.9;82.5127;943.0555;;;;
2023/12/27 05:07:31;;;;;;;9.7;7.2;;;;;;;1.89;82.56641;942.9717;;;;
2023/12/27 05:10:01;;;;;;;9.9;6.3;;;;;;;1.8;82.87207;942.9958;;;;
2023/12/27 05:12:28;;;;;;;7.3;5.2;;;;;;;1.75;82.8623;943.053;;;;
2023/12/27 05:15:00;;;;;;;5.5;3.9;;;;;;;1.7;82.96582;942.8978;;;;
2023/12/27 05:17:31;;;;;;;3.6;2.8;;;;;;;1.67;82.82422;942.9902;;;;
2023/12/27 05:20:03;;;;;;;4.1;2.7;;;;;;;1.82;81.9375;942.9661;;;;
2023/12/27 05:22:33;;;;;;;3.2;2;;;;;;;1.7;82.03711;942.9973;;;;
2023/12/27 05:24:55;;;;;;;3.4;2.2;;;;;;;1.62;82.53613;943.0341;;;;
2023/12/27 05:27:20;;;;;;;2.8;2.1;;;;;;;1.54;83.30273;943.0094;;;;
2023/12/27 05:29:45;;;;;;;3.6;2.5;;;;;;;;;;;;;
2023/12/27 05:32:12;;;;;;;4.3;2.6;;;;;;;;;;;;;
2023/12/27 05:34:37;;;;;;;6;2.8;;;;;;;;;;;;;
2023/12/27 05:37:02;;;;;;;5;2.8;;;;;;;;;;;;;
2023/12/27 05:39:29;;;;;;;3.8;2.8;;;;;;;;;;;;;
2023/12/27 05:41:54;;;;;;;5.1;3;;;;;;;;;;;;;
2023/12/27 05:44:21;;;;;;;6.4;3.3;;;;;;;;;;;;;
2023/12/27 05:46:46;;;;;;;6.3;3.7;;;;;;;;;;;;;
2023/12/27 05:49:12;;;;;;;5.7;3.6;;;;;;;;;;;;;
2023/12/27 05:51:36;;;;;;;5.3;3.3;;;;;;;;;;;;;
2023/12/27 05:54:03;;;;;;;3.5;2.7;;;;;;;;;;;;;
2023/12/27 05:56:28;;;;;;;4;2.3;;;;;;;;;;;;;
2023/12/27 05:58:55;;;;;;;4.5;2.3;;;;;;;;;;;;;
2023/12/27 06:01:20;;;;;;;2.8;2.2;;;;;;;;;;;;;
2023/12/27 06:03:47;;;;;;;2.9;2.1;;;;;;;;;;;;;
2023/12/27 06:06:12;;;;;;;3.6;2.3;;;;;;;;;;;;;
2023/12/27 06:08:38;;;;;;;3.4;2.3;;;;;;;;;;;;;
2023/12/27 06:11:03;;;;;;;2.5;1.9;;;;;;;;;;;;;
2023/12/27 06:13:29;;;;;;;2.2;1.8;;;;;;;;;;;;;
2023/12/27 06:15:54;;;;;;;2.6;2.2;;;;;;;;;;;;;
2023/12/27 06:18:21;;;;;;;5.4;3.4;;;;;;;;;;;;;
2023/12/27 06:20:46;;;;;;;10.4;4.7;;;;;;;;;;;;;
2023/12/27 06:23:12;;;;;;;10.9;5.2;;;;;;;;;;;;;
2023/12/27 06:25:37;;;;;;;7.8;4.6;;;;;;;;;;;;;
2023/12/27 06:28:03;;;;;;;7.2;4.2;;;;;;;;;;;;;
2023/12/27 06:30:28;;;;;;;5.2;3.5;;;;;;;;;;;;;
2023/12/27 06:32:53;;;;;;;5.8;3.2;;;;;;;;;;;;;
2023/12/27 06:35:19;;;;;;;4.8;2.8;;;;;;;;;;;;;
2023/12/27 06:37:44;;;;;;;4.3;2.9;;;;;;;;;;;;;
2023/12/27 06:40:09;;;;;;;4.3;2.8;;;;;;;;;;;;;
2023/12/27 06:42:35;;;;;;;6.1;3.4;;;;;;;;;;;;;
2023/12/27 06:45:01;;;;;;;6;3.8;;;;;;;;;;;;;
2023/12/27 06:47:30;;;;;;;4;3.4;;;;;;;;;;;;;
2023/12/27 06:50:00;;;;;;;4.5;3.6;;;;;;;;;;;;;
2023/12/27 06:52:25;;;;;;;8.4;5.1;;;;;;;;;;;;;
2023/12/27 06:54:51;;;;;;;9.4;6.7;;;;;;;;;;;;;
2023/12/27 06:57:16;;;;;;;9.4;6.9;;;;;;;;;;;;;
2023/12/27 06:59:42;;;;;;;10.5;6;;;;;;;;;;;;;
2023/12/27 07:02:07;;;;;;;8.7;6;;;;;;;;;;;;;
2023/12/27 07:04:34;;;;;;;6.2;4.3;;;;;;;;;;;;;
2023/12/27 07:06:59;;;;;;;7.7;5.3;;;;;;;;;;;;;
2023/12/27 07:09:25;;;;;;;8.2;5.7;;;;;;;;;;;;;
2023/12/27 07:11:50;;;;;;;10.1;7.5;;;;;;;;;;;;;
2023/12/27 07:14:17;;;;;;;11.4;8.3;;;;;;;;;;;;;
2023/12/27 07:16:42;;;;;;;10.8;8;;;;;;;;;;;;;
2023/12/27 07:19:11;;;;;;;9;7.5;;;;;;;;;;;;;
2023/12/27 07:21:36;;;;;;;7;5.9;;;;;;;;;;;;;
2023/12/27 07:24:05;;;;;;;6.7;4.6;;;;;;;;;;;;;
2023/12/27 07:26:34;;;;;;;7.3;3.6;;;;;;;;;;;;;
2023/12/27 07:28:59;;;;;;;5.6;3.3;;;;;;;;;;;;;
2023/12/27 07:31:26;;;;;;;3.2;2.8;;;;;;;;;;;;;
2023/12/27 07:33:51;;;;;;;3;2.4;;;;;;;;;;;;;
2023/12/27 07:36:18;;;;;;;3.6;2.6;;;;;;;;;;;;;
2023/12/27 07:38:43;;;;;;;4.8;3.5;;;;;;;;;;;;;
2023/12/27 07:41:11;;;;;;;6.9;4.3;;;;;;;;;;;;;
2023/12/27 07:43:37;;;;;;;7.7;4.5;;;;;;;;;;;;;
2023/12/27 07:46:06;;;;;;;7.9;5.6;;;;;;;;;;;;;
2023/12/27 07:48:31;;;;;;;11.1;8.5;;;;;;;;;;;;;
2023/12/27 07:50:57;;;;;;;9.4;6.9;;;;;;;;;;;;;
2023/12/27 07:53:22;;;;;;;9.2;7;;;;;;;;;;;;;
2023/12/27 07:55:49;;;;;;;13.3;9.5;;;;;;;;;;;;;
2023/12/27 07:58:13;;;;;;;16.5;10.5;;;;;;;;;;;;;
2023/12/27 08:00:38;;;;;;;13.9;8.2;;;;;;;;;;;;;
2023/12/27 08:03:08;;;;;;;10.7;7.2;;;;;;;;;;;;;
2023/12/27 08:05:29;;;;;;;18.2;10.4;;;;;;;;;;;;;
2023/12/27 08:07:57;;;;;;;12.5;7.2;;;;;;;;;;;;;
2023/12/27 08:10:22;;;;;;;8.1;5;;;;;;;;;;;;;
2023/12/27 08:12:47;;;;;;;7.4;5.2;;;;;;;;;;;;;
2023/12/27 08:15:12;;;;;;;9.3;5.5;;;;;;;;;;;;;
2023/12/27 08:17:39;;;;;;;8.7;5.3;;;;;;;;;;;;;
2023/12/27 08:20:04;;;;;;;7.3;4.7;;;;;;;;;;;;;
2023/12/27 08:22:29;;;;;;;7.1;4.5;;;;;;;;;;;;;
2023/12/27 08:24:54;;;;;;;5.4;4.3;;;;;;;;;;;;;
2023/12/27 08:27:20;;;;;;;9.3;6.7;;;;;;;;;;;;;
2023/12/27 08:29:45;;;;;;;10.2;7.1;;;;;;;;;;;;;
2023/12/27 08:32:13;;;;;;;10.5;7.4;;;;;;;;;;;;;
2023/12/27 08:34:38;;;;;;;11.7;8.3;;;;;;;;;;;;;
2023/12/27 08:37:04;;;;;;;9.2;6.5;;;;;;;;;;;;;
2023/12/27 08:39:29;;;;;;;11.9;8.2;;;;;;;;;;;;;
2023/12/27 08:41:57;;;;;;;12.5;8.8;;;;;;;;;;;;;
2023/12/27 08:44:22;;;;;;;12.5;8.6;;;;;;;;;;;;;
2023/12/27 08:46:48;;;;;;;14.2;9.2;;;;;;;;;;;;;
2023/12/27 08:49:13;;;;;;;11.6;7.7;;;;;;;;;;;;;
2023/12/27 08:51:39;;;;;;;11.5;7;;;;;;;;;;;;;
2023/12/27 08:54:05;;;;;;;8.7;5.8;;;;;;;;;;;;;
2023/12/27 08:56:30;;;;;;;10.3;6.1;;;;;;;;;;;;;
2023/12/27 08:58:56;;;;;;;9.7;5.8;;;;;;;;;;;;;
2023/12/27 09:01:23;;;;;;;9.6;6.6;;;;;;;;;;;;;
2023/12/27 09:03:50;;;;;;;8.6;6;;;;;;;;;;;;;
2023/12/27 09:06:14;;;;;;;5.8;4;;;;;;;;;;;;;
2023/12/27 09:08:40;;;;;;;8.2;5.1;;;;;;;;;;;;;
2023/12/27 09:11:07;;;;;;;8.5;5.8;;;;;;;;;;;;;
2023/12/27 09:13:32;;;;;;;8.8;6.2;;;;;;;;;;;;;
2023/12/27 09:16:02;;;;;;;8.3;5.7;;;;;;;;;;;;;
2023/12/27 09:18:25;;;;;;;10.9;5.5;;;;;;;;;;;;;
2023/12/27 09:20:51;;;;;;;7.7;3.5;;;;;;;;;;;;;
2023/12/27 09:23:16;;;;;;;5.9;3.5;;;;;;;;;;;;;
2023/12/27 09:25:43;;;;;;;4.7;2.8;;;;;;;;;;;;;
2023/12/27 09:28:08;;;;;;;6.3;4.1;;;;;;;;;;;;;
2023/12/27 09:30:34;;;;;;;6.5;4.2;;;;;;;;;;;;;
2023/12/27 09:33:00;;;;;;;8.3;5.1;;;;;;;;;;;;;
2023/12/27 09:35:27;;;;;;;8.6;4.4;;;;;;;;;;;;;
2023/12/27 09:37:52;;;;;;;8.7;5;;;;;;;;;;;;;
2023/12/27 09:40:18;;;;;;;9.3;4.9;;;;;;;;;;;;;
2023/12/27 09:42:43;;;;;;;10.3;5.7;;;;;;;;;;;;;
2023/12/27 09:45:11;;;;;;;10.6;5.6;;;;;;;;;;;;;
2023/12/27 09:47:36;;;;;;;9.4;5.3;;;;;;;;;;;;;
2023/12/27 09:50:05;;;;;;;7;4.6;;;;;;;;;;;;;
2023/12/27 09:52:30;;;;;;;7.8;4.6;;;;;;;;;;;;;
2023/12/27 09:54:56;;;;;;;5.9;4.4;;;;;;;;;;;;;
2023/12/27 09:57:22;;;;;;;7.6;4.5;;;;;;;;;;;;;
2023/12/27 09:59:48;;;;;;;7.5;4.7;;;;;;;;;;;;;
2023/12/27 10:02:12;;;;;;;5.9;3.8;;;;;;;;;;;;;
2023/12/27 10:04:42;;;;;;;6.7;4;;;;;;;;;;;;;
2023/12/27 10:07:08;;;;;;;4.7;3.7;;;;;;;;;;;;;
2023/12/27 10:09:34;;;;;;;8;4;;;;;;;;;;;;;
2023/12/27 10:12:00;;;;;;;6;4.1;;;;;;;;;;;;;
2023/12/27 10:14:25;;;;;;;8.2;3.7;;;;;;;;;;;;;
2023/12/27 10:16:53;;;;;;;5.3;3.4;;;;;;;;;;;;;
2023/12/27 10:19:17;;;;;;;4.9;3.2;;;;;;;;;;;;;
2023/12/27 10:21:47;;;;;;;6;3;;;;;;;;;;;;;
2023/12/27 10:24:11;;;;;;;5.9;3;;;;;;;;;;;;;
2023/12/27 10:26:38;;;;;;;4.7;3.2;;;;;;;;;;;;;
2023/12/27 10:29:07;;;;;;;5.2;3;;;;;;;;;;;;;
2023/12/27 10:31:28;;;;;;;6.1;3.6;;;;;;;;;;;;;
2023/12/27 10:33:55;;;;;;;8.5;3.9;;;;;;;;;;;;;
2023/12/27 10:36:20;;;;;;;8.3;3.6;;;;;;;;;;;;;
2023/12/27 10:38:45;;;;;;;4.1;2.8;;;;;;;;;;;;;
2023/12/27 10:41:10;;;;;;;4.3;2.5;;;;;;;;;;;;;
2023/12/27 10:43:42;;;;;;;5.1;2.4;;;;;;;;;;;;;
2023/12/27 10:46:06;;;;;;;4.3;2.5;;;;;;;;;;;;;
2023/12/27 10:48:31;;;;;;;8;4.5;;;;;;;;;;;;;
2023/12/27 10:50:56;;;;;;;8.7;4.4;;;;;;;;;;;;;
2023/12/27 10:53:21;;;;;;;5.7;3.8;;;;;;;;;;;;;
2023/12/27 10:55:49;;;;;;;5.6;3.6;;;;;;;;;;;;;
2023/12/27 10:58:14;;;;;;;4.8;3;;;;;;;;;;;;;
2023/12/27 11:00:40;;;;;;;3.4;2.4;;;;;;;;;;;;;
2023/12/27 11:03:06;;;;;;;4.1;2.7;;;;;;;;;;;;;
2023/12/27 11:05:35;;;;;;;4.2;2.7;;;;;;;;;;;;;
2023/12/27 11:08:00;;;;;;;3.4;2.5;;;;;;;;;;;;;
2023/12/27 11:10:29;;;;;;;3.5;2.3;;;;;;;;;;;;;
2023/12/27 11:12:53;;;;;;;3;2.1;;;;;;;;;;;;;
2023/12/27 11:15:22;;;;;;;3.3;2.2;;;;;;;;;;;;;
2023/12/27 11:17:47;;;;;;;3.6;2.3;;;;;;;;;;;;;
2023/12/27 11:20:16;;;;;;;3.6;1.7;;;;;;;;;;;;;
2023/12/27 11:22:40;;;;;;;1.8;1.6;;;;;;;;;;;;;
2023/12/27 11:25:07;;;;;;;3;1.7;;;;;;;;;;;;;
2023/12/27 11:27:32;;;;;;;4.5;1.8;;;;;;;;;;;;;
2023/12/27 11:29:59;;;;;;;2.4;1.5;;;;;;;;;;;;;
2023/12/27 11:32:24;;;;;;;2.5;1.5;;;;;;;;;;;;;
2023/12/27 11:34:50;;;;;;;3.1;1.9;;;;;;;;;;;;;
2023/12/27 11:37:15;;;;;;;3.4;1.8;;;;;;;;;;;;;
2023/12/27 11:39:40;;;;;;;2.9;1.8;;;;;;;;;;;;;
2023/12/27 11:42:06;;;;;;;2;1.6;;;;;;;;;;;;;
2023/12/27 11:44:34;;;;;;;4.9;2;;;;;;;;;;;;;
2023/12/27 11:46:59;;;;;;;2.4;1.6;;;;;;;;;;;;;
2023/12/27 11:49:25;;;;;;;1.8;1.5;;;;;;;;;;;;;
2023/12/27 11:51:50;;;;;;;2.3;1.6;;;;;;;;;;;;;
2023/12/27 11:54:16;;;;;;;3.8;2.1;;;;;;;;;;;;;
2023/12/27 11:56:41;;;;;;;4.3;2.3;;;;;;;;;;;;;
2023/12/27 11:59:11;;;;;;;4.3;2.6;;;;;;;;;;;;;
2023/12/27 12:01:36;;;;;;;6.1;2.8;;;;;;;;;;;;;
2023/12/27 12:04:01;;;;;;;5.2;3;;;;;;;;;;;;;
2023/12/27 12:06:26;;;;;;;7.4;3.3;;;;;;;;;;;;;
2023/12/27 12:08:52;;;;;;;3.3;2.3;;;;;;;;;;;;;
2023/12/27 12:11:18;;;;;;;3.2;2.1;;;;;;;;;;;;;
2023/12/27 12:13:45;;;;;;;4.3;2.1;;;;;;;;;;;;;
2023/12/27 12:16:11;;;;;;;2.7;1.8;;;;;;;;;;;;;
2023/12/27 12:18:36;;;;;;;2.7;1.5;;;;;;;;;;;;;
2023/12/27 12:21:03;;;;;;;2.5;1.4;;;;;;;;;;;;;
2023/12/27 12:23:28;;;;;;;2.6;1.7;;;;;;;;;;;;;
2023/12/27 12:25:54;;;;;;;6.5;2.5;;;;;;;;;;;;;
2023/12/27 12:28:19;;;;;;;3.4;2.4;;;;;;;;;;;;;
2023/12/27 12:30:44;;;;;;;6.6;3.9;;;;;;;;;;;;;
2023/12/27 12:33:09;;;;;;;8.9;3.9;;;;;;;;;;;;;
2023/12/27 12:35:37;;;;;;;7.3;3.8;;;;;;;;;;;;;
2023/12/27 12:38:03;;;;;;;6.9;3.4;;;;;;;;;;;;;
2023/12/27 12:40:30;;;;;;;3.6;1.7;;;;;;;;;;;;;
2023/12/27 12:42:55;;;;;;;5.7;2.5;;;;;;;;;;;;;
2023/12/27 12:45:21;;;;;;;4.3;2.3;;;;;;;;;;;;;
2023/12/27 12:47:46;;;;;;;4.8;2;;;;;;;;;;;;;
2023/12/27 12:50:13;;;;;;;3.8;1.8;;;;;;;;;;;;;
2023/12/27 12:52:38;;;;;;;2.4;1.8;;;;;;;;;;;;;
2023/12/27 12:55:03;;;;;;;2.8;1.7;;;;;;;;;;;;;
2023/12/27 12:57:29;;;;;;;2.8;1.6;;;;;;;;;;;;;
2023/12/27 12:59:56;;;;;;;2.9;1.8;;;;;;;;;;;;;
2023/12/27 13:02:21;;;;;;;3.8;2.1;;;;;;;;;;;;;
2023/12/27 13:04:47;;;;;;;3.2;1.9;;;;;;;;;;;;;
2023/12/27 13:07:12;;;;;;;3;1.6;;;;;;;;;;;;;
2023/12/27 13:09:37;;;;;;;2.5;1.5;;;;;;;;;;;;;
2023/12/27 13:12:02;;;;;;;2.8;1.9;;;;;;;;;;;;;
2023/12/27 13:14:28;;;;;;;2.8;1.9;;;;;;;;;;;;;
2023/12/27 13:16:53;;;;;;;1.8;1.6;;;;;;;;;;;;;
2023/12/27 13:19:20;;;;;;;3.5;2.4;;;;;;;;;;;;;
2023/12/27 13:21:45;;;;;;;7.2;3.7;;;;;;;;;;;;;
2023/12/27 13:24:10;;;;;;;7.5;4.4;;;;;;;;;;;;;
2023/12/27 13:26:37;;;;;;;9.4;5.2;;;;;;;;;;;;;
2023/12/27 13:29:02;;;;;;;7.6;4.8;;;;;;;;;;;;;
2023/12/27 13:31:27;;;;;;;6.5;4.3;;;;;;;;;;;;;
2023/12/27 13:33:53;;;;;;;6.1;4;;;;;;;;;;;;;
2023/12/27 13:36:19;;;;;;;7.5;4.7;;;;;;;;;;;;;
2023/12/27 13:38:46;;;;;;;9.5;4.2;;;;;;;;;;;;;
2023/12/27 13:41:12;;;;;;;4.8;2.8;;;;;;;;;;;;;
2023/12/27 13:43:39;;;;;;;7.1;4;;;;;;;;;;;;;
2023/12/27 13:46:05;;;;;;;6;3.6;;;;;;;;;;;;;
2023/12/27 13:48:27;;;;;;;7.3;3.6;;;;;;;;;;;;;
2023/12/27 13:50:53;;;;;;;6.4;3.4;;;;;;;;;;;;;
2023/12/27 13:53:18;;;;;;;4.6;3.3;;;;;;;;;;;;;
2023/12/27 13:55:45;;;;;;;6.2;3.3;;;;;;;;;;;;;
2023/12/27 13:58:10;;;;;;;6.2;3.8;;;;;;;;;;;;;
2023/12/27 14:00:39;;;;;;;7.3;5;;;;;;;;;;;;;
2023/12/27 14:03:12;;;;;;;9;6.3;;;;;;;;;;;;;
2023/12/27 14:05:42;;;;;;;11.3;6.4;;;;;;;;;;;;;
2023/12/27 14:08:07;;;;;;;11.6;6.9;;;;;;;;;;;;;
2023/12/27 14:10:34;;;;;;;9;5.8;;;;;;;;;;;;;
2023/12/27 14:12:58;;;;;;;20.2;8.5;;;;;;;;;;;;;
2023/12/27 14:15:27;;;;;;;19.3;10;;;;;;;;;;;;;
2023/12/27 14:17:54;;;;;;;22.1;12.4;;;;;;;;;;;;;
2023/12/27 14:20:20;;;;;;;17.4;10.4;;;;;;;;;;;;;
2023/12/27 14:22:47;;;;;;;17.2;10;;;;;;;;;;;;;
2023/12/27 14:25:13;;;;;;;16.7;9.1;;;;;;;;;;;;;
2023/12/27 14:27:42;;;;;;;17.2;9.1;;;;;;;;;;;;;
2023/12/27 14:30:06;;;;;;;11.9;7.4;;;;;;;;;;;;;
2023/12/27 14:32:34;;;;;;;14.2;8.1;;;;;;;;;;;;;
2023/12/27 14:35:00;;;;;;;14.7;8.5;;;;;;;;;;;;;
2023/12/27 14:37:24;;;;;;;17.5;8.9;;;;;;;;;;;;;
2023/12/27 14:39:49;;;;;;;15;8.9;;;;;;;;;;;;;
2023/12/27 14:42:15;;;;;;;15.8;9.2;;;;;;;;;;;;;
2023/12/27 14:44:41;;;;;;;13.6;8.6;;;;;;;;;;;;;
2023/12/27 14:47:08;;;;;;;15.4;8.8;;;;;;;;;;;;;
2023/12/27 14:49:32;;;;;;;13;8.9;;;;;;;;;;;;;
2023/12/27 14:51:57;;;;;;;12.8;8.5;;;;;;;;;;;;;
2023/12/27 14:54:25;;;;;;;14.6;8.9;;;;;;;;;;;;;
2023/12/27 14:56:50;;;;;;;17.3;10.7;;;;;;;;;;;;;
2023/12/27 14:59:16;;;;;;;17.3;10.7;;;;;;;;;;;;;
2023/12/27 15:01:41;;;;;;;20.8;12;;;;;;;;;;;;;
2023/12/27 15:04:07;;;;;;;23.1;14.8;;;;;;;;;;;;;
2023/12/27 15:06:32;;;;;;;21;14.4;;;;;;;;;;;;;
2023/12/27 15:08:59;;;;;;;17.4;13;;;;;;;;;;;;;
2023/12/27 15:11:25;;;;;;;20.2;13.8;;;;;;;;;;;;;
2023/12/27 15:13:51;;;;;;;17.1;12.1;;;;;;;;;;;;;
2023/12/27 15:16:17;;;;;;;19.8;13.5;;;;;;;;;;;;;
2023/12/27 15:18:42;;;;;;;21.7;14.1;;;;;;;;;;;;;
2023/12/27 15:21:07;;;;;;;21.9;14.2;;;;;;;;;;;;;
2023/12/27 15:23:34;;;;;;;22.2;14.3;;;;;;;;;;;;;
2023/12/27 15:25:59;;;;;;;26.3;14.9;;;;;;;;;;;;;
2023/12/27 15:28:29;;;;;;;23.8;13.9;;;;;;;;;;;;;
2023/12/27 15:30:50;;;;;;;22.3;14.2;;;;;;;;;;;;;
2023/12/27 15:33:16;;;;;;;46.9;30;;;;;;;;;;;;;
2023/12/27 15:35:41;;;;;;;33.3;20.2;;;;;;;;;;;;;
2023/12/27 15:38:07;;;;;;;29.8;18;;;;;;;;;;;;;
2023/12/27 15:40:32;;;;;;;40.9;25.1;;;;;;;;;;;;;
2023/12/27 15:43:00;;;;;;;44;23.4;;;;;;;;;;;;;
2023/12/27 15:45:25;;;;;;;47.8;24.5;;;;;;;;;;;;;
2023/12/27 15:47:51;;;;;;;45.2;25.6;;;;;;;;;;;;;
2023/12/27 15:50:18;;;;;;;46.9;24.5;;;;;;;;;;;;;
2023/12/27 15:52:44;;;;;;;41.6;23.5;;;;;;;;;;;;;
2023/12/27 15:55:09;;;;;;;39.2;23.5;;;;;;;;;;;;;
2023/12/27 15:57:37;;;;;;;38.8;24.1;;;;;;;;;;;;;
2023/12/27 16:00:05;;;;;;;34.2;22.8;;;;;;;;;;;;;
2023/12/27 16:02:27;;;;;;;44.8;25.5;;;;;;;;;;;;;
2023/12/27 16:04:53;;;;;;;45.5;26.5;;;;;;;;;;;;;
2023/12/27 16:07:18;;;;;;;58.1;30.6;;;;;;;;;;;;;
2023/12/27 16:09:45;;;;;;;51.9;32.1;;;;;;;;;;;;;
2023/12/27 16:12:10;;;;;;;64.7;39.8;;;;;;;;;;;;;
2023/12/27 16:14:40;;;;;;;73.2;44.1;;;;;;;;;;;;;
2023/12/27 16:17:03;;;;;;;75.3;43.4;;;;;;;;;;;;;
2023/12/27 16:19:33;;;;;;;67;38.7;;;;;;;;;;;;;
2023/12/27 16:21:55;;;;;;;58.4;34.1;;;;;;;;;;;;;
2023/12/27 16:24:22;;;;;;;56;31.2;;;;;;;;;;;;;
2023/12/27 16:26:47;;;;;;;50.1;30.6;;;;;;;;;;;;;
2023/12/27 16:29:13;;;;;;;48.7;28.5;;;;;;;;;;;;;
2023/12/27 16:31:37;;;;;;;53.1;31.1;;;;;;;;;;;;;
2023/12/27 16:34:05;;;;;;;57.9;33.3;;;;;;;;;;;;;
2023/12/27 16:36:30;;;;;;;60;33;;;;;;;;;;;;;
2023/12/27 16:38:58;;;;;;;56.5;31.8;;;;;;;;;;;;;
2023/12/27 16:41:23;;;;;;;52.4;32.8;;;;;;;;;;;;;
2023/12/27 16:43:52;;;;;;;56.3;31.9;;;;;;;;;;;;;
2023/12/27 16:46:17;;;;;;;69;36.1;;;;;;;;;;;;;
2023/12/27 16:48:47;;;;;;;66.5;36;;;;;;;;;;;;;
2023/12/27 16:51:17;;;;;;;55.5;31.6;;;;;;;;;;;;;
2023/12/27 16:53:42;;;;;;;48.2;29.1;;;;;;;;;;;;;
2023/12/27 16:56:10;;;;;;;51.4;30.4;;;;;;;;;;;;;
2023/12/27 16:58:35;;;;;;;50.4;31;;;;;;;;;;;;;
2023/12/27 17:01:00;;;;;;;56.6;33.5;;;;;;;;;;;;;
2023/12/27 17:03:25;;;;;;;89.8;51.4;;;;;;;;;;;;;
2023/12/27 17:05:52;;;;;;;55;33.7;;;;;;;;;;;;;
2023/12/27 17:08:17;;;;;;;44.3;27.8;;;;;;;;;;;;;
2023/12/27 17:10:46;;;;;;;46.5;28.6;;;;;;;;;;;;;
2023/12/27 17:13:14;;;;;;;53.9;31.5;;;;;;;;;;;;;
2023/12/27 17:15:37;;;;;;;37.5;24.1;;;;;;;;;;;;;
2023/12/27 17:18:04;;;;;;;42.4;27;;;;;;;;;;;;;
2023/12/27 17:20:29;;;;;;;34.1;20.4;;;;;;;;;;;;;
2023/12/27 17:22:55;;;;;;;33.9;19.9;;;;;;;;;;;;;
2023/12/27 17:25:21;;;;;;;33.5;18.8;;;;;;;;;;;;;
2023/12/27 17:27:47;;;;;;;28.9;18.1;;;;;;;;;;;;;
2023/12/27 17:30:12;;;;;;;38.2;23.4;;;;;;;;;;;;;
2023/12/27 17:32:40;;;;;;;46.2;29.3;;;;;;;;;;;;;
2023/12/27 17:35:06;;;;;;;49.5;29.6;;;;;;;;;;;;;
2023/12/27 17:37:36;;;;;;;43.4;26.6;;;;;;;;;;;;;
2023/12/27 17:40:04;;;;;;;39.5;24.6;;;;;;;;;;;;;
2023/12/27 17:42:28;;;;;;;36.9;23.4;;;;;;;;;;;;;
2023/12/27 17:44:55;;;;;;;38.8;23.8;;;;;;;;;;;;;
2023/12/27 17:47:20;;;;;;;33.5;20.8;;;;;;;;;;;;;
2023/12/27 17:49:47;;;;;;;36.1;22.1;;;;;;;;;;;;;
2023/12/27 17:52:11;;;;;;;39.9;25.5;;;;;;;;;;;;;
2023/12/27 17:54:38;;;;;;;42.8;27.5;;;;;;;;;;;;;
2023/12/27 17:57:03;;;;;;;48;29.1;;;;;;;;;;;;;
2023/12/27 17:59:30;;;;;;;55.1;33.1;;;;;;;;;;;;;
2023/12/27 18:01:54;;;;;;;49;30.3;;;;;;;;;;;;;
2023/12/27 18:04:22;;;;;;;55.7;33.5;;;;;;;;;;;;;
2023/12/27 18:06:47;;;;;;;56.2;34.3;;;;;;;;;;;;;
2023/12/27 18:09:14;;;;;;;43.4;28.1;;;;;;;;;;;;;
2023/12/27 18:11:39;;;;;;;57.4;35.6;;;;;;;;;;;;;
2023/12/27 18:14:05;;;;;;;45.9;29.5;;;;;;;;;;;;;
2023/12/27 18:16:30;;;;;;;48.2;31.7;;;;;;;;;;;;;
2023/12/27 18:18:55;;;;;;;53.3;33.7;;;;;;;;;;;;;
2023/12/27 18:21:20;;;;;;;48.1;31.3;;;;;;;;;;;;;
2023/12/27 18:23:46;;;;;;;52.2;31.8;;;;;;;;;;;;;
2023/12/27 18:26:11;;;;;;;40.5;26.5;;;;;;;;;;;;;
2023/12/27 18:28:38;;;;;;;57.1;35.3;;;;;;;;;;;;;
2023/12/27 18:31:03;;;;;;;43.9;25;;;;;;;;;;;;;
2023/12/27 18:33:31;;;;;;;32.9;21.5;;;;;;;;;;;;;
2023/12/27 18:35:57;;;;;;;31.6;21.6;;;;;;;;;;;;;
2023/12/27 18:38:22;;;;;;;47.9;30.3;;;;;;;;;;;;;
2023/12/27 18:40:47;;;;;;;44.9;28;;;;;;;;;;;;;
2023/12/27 18:43:12;;;;;;;45.2;29.3;;;;;;;;;;;;;
2023/12/27 18:45:38;;;;;;;50.2;31.4;;;;;;;;;;;;;
2023/12/27 18:48:04;;;;;;;51;30.1;;;;;;;;;;;;;
2023/12/27 18:50:29;;;;;;;43;25.8;;;;;;;;;;;;;
2023/12/27 18:52:56;;;;;;;43.8;27.1;;;;;;;;;;;;;
2023/12/27 18:55:21;;;;;;;43.8;26.5;;;;;;;;;;;;;
2023/12/27 18:57:48;;;;;;;38.5;25;;;;;;;;;;;;;
2023/12/27 19:00:13;;;;;;;44.9;28.8;;;;;;;;;;;;;
2023/12/27 19:02:41;;;;;;;44.6;28.5;;;;;;;;;;;;;
2023/12/27 19:05:06;;;;;;;49.4;30.6;;;;;;;;;;;;;
2023/12/27 19:07:31;;;;;;;48.9;31.9;;;;;;;;;;;;;
2023/12/27 19:09:56;;;;;;;45.5;29.4;;;;;;;;;;;;;
2023/12/27 19:12:26;;;;;;;48.1;29.6;;;;;;;;;;;;;
2023/12/27 19:14:46;;;;;;;44.2;26.9;;;;;;;;;;;;;
2023/12/27 19:17:13;;;;;;;36.5;22.6;;;;;;;;;;;;;
2023/12/27 19:19:39;;;;;;;37.4;23.2;;;;;;;;;;;;;
2023/12/27 19:22:06;;;;;;;37.9;23.5;;;;;;;;;;;;;
2023/12/27 19:24:31;;;;;;;36.9;23.9;;;;;;;;;;;;;
2023/12/27 19:26:57;;;;;;;36.6;24.2;;;;;;;;;;;;;
2023/12/27 19:29:22;;;;;;;38.6;22.3;;;;;;;;;;;;;
2023/12/27 19:31:49;;;;;;;40.4;24.7;;;;;;;;;;;;;
2023/12/27 19:34:14;;;;;;;61.2;34.6;;;;;;;;;;;;;
2023/12/27 19:36:39;;;;;;;38.7;24.6;;;;;;;;;;;;;
2023/12/27 19:39:06;;;;;;;28.1;19.5;;;;;;;;;;;;;
2023/12/27 19:41:32;;;;;;;28;18.5;;;;;;;;;;;;;
2023/12/27 19:43:57;;;;;;;33.2;21.3;;;;;;;;;;;;;
2023/12/27 19:48:44;;;;;;;37.9;22.9;;;;;;;3.57;73.79395;939.6755;;;;
2023/12/27 19:51:15;;;;;;;38.9;23.8;;;;;;;3.66;73.85547;939.7353;;;;